createdAt,value
2022-08-23T00:02:23.024Z,21.00
2022-08-23T00:05:07.846Z,21.00
2022-08-23T00:07:42.682Z,21.00
2022-08-23T00:10:10.474Z,21.00
2022-08-23T00:12:37.559Z,21.00
2022-08-23T00:15:05.046Z,21.00
2022-08-23T00:17:34.056Z,21.00
2022-08-23T00:20:09.218Z,20.90
2022-08-23T00:22:36.828Z,20.90
2022-08-23T00:25:05.011Z,20.90
2022-08-23T00:27:31.989Z,20.90
2022-08-23T00:29:59.438Z,20.90
2022-08-23T00:32:28.487Z,20.90
2022-08-23T00:34:55.955Z,20.90
2022-08-23T00:37:23.508Z,20.90
2022-08-23T00:39:50.897Z,20.90
2022-08-23T00:42:42.958Z,20.90
2022-08-23T00:45:29.368Z,20.90
2022-08-23T00:47:58.012Z,20.80
2022-08-23T00:50:31.815Z,20.80
2022-08-23T00:53:14.811Z,20.80
2022-08-23T00:55:44.257Z,20.80
2022-08-23T00:58:12.829Z,20.70
2022-08-23T01:00:39.988Z,20.70
2022-08-23T01:03:09.138Z,20.70
2022-08-23T01:05:56.454Z,20.80
2022-08-23T01:08:24.766Z,20.80
2022-08-23T01:10:57.456Z,20.80
2022-08-23T01:13:27.174Z,20.80
2022-08-23T01:15:58.755Z,20.80
2022-08-23T01:18:27.861Z,20.80
2022-08-23T01:20:57.551Z,20.80
2022-08-23T01:23:33.603Z,20.80
2022-08-23T01:26:01.028Z,20.80
2022-08-23T01:28:28.142Z,20.80
2022-08-23T01:30:55.293Z,20.80
2022-08-23T01:33:22.716Z,20.80
2022-08-23T01:35:53.555Z,20.80
2022-08-23T01:38:22.514Z,20.80
2022-08-23T01:40:50.632Z,20.70
2022-08-23T01:43:20.014Z,20.70
2022-08-23T01:45:48.974Z,20.70
2022-08-23T01:48:17.933Z,20.70
2022-08-23T01:50:45.468Z,20.70
2022-08-23T01:53:13.853Z,20.70
2022-08-23T01:55:46.233Z,20.70
2022-08-23T01:58:13.724Z,20.70
2022-08-23T02:00:44.483Z,20.70
2022-08-23T02:03:13.656Z,20.70
2022-08-23T02:05:41.362Z,20.60
2022-08-23T02:08:29.122Z,20.60
2022-08-23T02:10:58.049Z,20.60
2022-08-23T02:13:26.390Z,20.60
2022-08-23T02:15:53.822Z,20.60
2022-08-23T02:18:21.215Z,20.60
2022-08-23T02:20:50.023Z,20.60
2022-08-23T02:23:17.902Z,20.60
2022-08-23T02:25:45.195Z,20.50
2022-08-23T02:28:12.324Z,20.50
2022-08-23T02:30:40.320Z,20.50
2022-08-23T02:33:09.865Z,20.50
2022-08-23T02:35:38.815Z,20.50
2022-08-23T02:38:06.741Z,20.50
2022-08-23T07:03:49.503Z,25.70
2022-08-23T07:06:46.038Z,26.20
2022-08-23T07:09:13.415Z,27.40
2022-08-23T07:11:41.271Z,27.40
2022-08-23T07:14:12.777Z,27.30
2022-08-23T07:16:41.345Z,27.20
2022-08-23T07:19:09.310Z,27.40
2022-08-23T07:21:36.725Z,27.70
2022-08-23T07:24:04.130Z,28.00
2022-08-23T07:26:32.291Z,28.10
2022-08-23T07:28:59.485Z,28.20
2022-08-23T07:31:28.540Z,28.30
2022-08-23T07:33:58.879Z,28.50
2022-08-23T07:38:55.837Z,30.10
2022-08-23T07:41:24.260Z,31.10
2022-08-23T07:43:51.703Z,32.10
2022-08-23T07:46:19.775Z,32.10
2022-08-23T07:48:55.204Z,31.50
2022-08-23T07:51:25.594Z,31.80
2022-08-23T07:53:52.708Z,32.40
2022-08-23T07:56:21.560Z,32.30
2022-08-23T07:59:14.605Z,31.90
2022-08-23T08:01:54.935Z,32.30
2022-08-23T08:04:24.038Z,32.40
2022-08-23T08:07:17.251Z,32.60
2022-08-23T08:09:43.178Z,33.20
2022-08-23T08:12:11.901Z,33.70
2022-08-23T08:14:42.607Z,33.90
2022-08-23T08:17:11.787Z,33.60
2022-08-23T08:20:08.297Z,33.80
2022-08-23T08:22:58.669Z,34.40
2022-08-23T08:25:46.877Z,34.20
2022-08-23T08:28:17.360Z,33.60
2022-08-23T08:30:44.480Z,33.10
2022-08-23T08:33:11.780Z,32.40
2022-08-23T08:35:39.976Z,32.30
2022-08-23T08:38:07.128Z,32.30
2022-08-23T08:40:38.705Z,32.50
2022-08-23T08:43:17.614Z,32.40
2022-08-23T08:46:04.066Z,32.60
2022-08-23T08:48:36.934Z,32.60
2022-08-23T08:51:05.898Z,32.30
2022-08-23T08:53:40.114Z,31.90
2022-08-23T08:56:23.823Z,31.60
2022-08-23T08:59:03.708Z,32.00
2022-08-23T09:01:32.815Z,32.40
2022-08-23T09:04:01.063Z,32.70
2022-08-23T09:06:33.187Z,33.10
2022-08-23T09:09:09.694Z,33.60
2022-08-23T09:11:46.760Z,33.70
2022-08-23T09:44:13.707Z,33.30
2022-08-23T09:46:44.170Z,34.00
2022-08-23T09:49:29.978Z,35.10
2022-08-23T09:52:22.281Z,35.90
2022-08-23T09:55:14.990Z,35.70
2022-08-23T09:57:47.076Z,35.80
2022-08-23T10:00:17.529Z,35.50
2022-08-23T10:02:50.342Z,34.80
2022-08-23T10:05:29.798Z,34.30
2022-08-23T10:08:00.208Z,34.60
2022-08-23T10:10:28.128Z,34.30
2022-08-23T10:12:59.588Z,34.00
2022-08-23T10:15:50.220Z,34.10
2022-08-23T10:18:25.020Z,33.90
2022-08-23T10:21:07.317Z,33.30
2022-08-23T10:23:55.353Z,33.20
2022-08-23T10:26:26.508Z,33.40
2022-08-23T10:29:24.866Z,33.30
2022-08-23T10:32:11.727Z,32.90
2022-08-23T10:34:53.282Z,32.80
2022-08-23T10:37:32.767Z,32.70
2022-08-23T10:40:03.901Z,32.90
2022-08-23T10:42:51.451Z,33.20
2022-08-23T10:45:31.895Z,33.60
2022-08-23T10:48:04.596Z,34.10
2022-08-23T10:50:55.980Z,33.80
2022-08-23T10:53:27.443Z,33.20
2022-08-23T10:56:06.071Z,33.10
2022-08-23T10:58:54.247Z,33.70
2022-08-23T11:01:23.681Z,34.70
2022-08-23T11:03:53.644Z,34.60
2022-08-23T11:06:27.940Z,34.50
2022-08-23T11:09:00.878Z,34.30
2022-08-23T11:11:40.293Z,33.60
2022-08-23T11:14:09.345Z,33.00
2022-08-23T11:16:38.319Z,32.70
2022-08-23T11:19:05.374Z,32.50
2022-08-23T11:21:40.053Z,32.40
2022-08-23T11:24:09.586Z,32.30
2022-08-23T11:26:38.136Z,32.50
2022-08-23T11:29:09.559Z,32.50
2022-08-23T11:31:50.874Z,32.60
2022-08-23T11:34:22.364Z,32.90
2022-08-23T11:37:16.410Z,33.00
2022-08-23T11:39:59.009Z,33.60
2022-08-23T11:42:38.052Z,33.50
2022-08-23T11:45:28.882Z,32.90
2022-08-23T11:48:14.822Z,32.80
2022-08-23T11:50:55.844Z,33.60
2022-08-23T11:53:28.738Z,34.50
2022-08-23T11:56:14.487Z,35.20
2022-08-23T11:59:00.488Z,35.70
2022-08-23T12:01:36.377Z,35.50
2022-08-23T12:04:11.685Z,35.10
2022-08-23T12:06:40.748Z,35.20
2022-08-23T12:09:12.753Z,35.10
2022-08-23T12:11:55.114Z,34.80
2022-08-23T12:14:30.966Z,34.30
2022-08-23T12:17:05.914Z,33.70
2022-08-23T12:19:46.819Z,33.50
2022-08-23T12:22:19.493Z,33.20
2022-08-23T12:24:52.438Z,33.20
2022-08-23T12:27:38.789Z,33.50
2022-08-23T12:30:18.783Z,33.70
2022-08-23T12:32:48.795Z,33.40
2022-08-23T12:35:19.110Z,33.40
2022-08-23T12:37:58.874Z,34.00
2022-08-23T12:40:34.237Z,34.30
2022-08-23T12:43:11.802Z,34.90
2022-08-23T12:45:46.448Z,35.60
2022-08-23T12:48:14.509Z,35.20
2022-08-23T12:50:43.921Z,34.80
2022-08-23T12:53:13.328Z,34.20
2022-08-23T12:55:42.851Z,33.40
2022-08-23T12:58:10.733Z,33.00
2022-08-23T13:00:57.872Z,32.60
2022-08-23T13:03:34.196Z,32.40
2022-08-23T13:06:04.543Z,32.30
2022-08-23T13:08:39.891Z,32.10
2022-08-23T13:11:08.561Z,32.00
2022-08-23T13:13:37.681Z,31.90
2022-08-23T13:16:27.134Z,31.80
2022-08-23T13:18:56.347Z,31.70
2022-08-23T13:21:23.525Z,31.40
2022-08-23T13:23:51.706Z,31.30
2022-08-23T13:26:34.958Z,31.30
2022-08-23T13:29:03.524Z,31.10
2022-08-23T13:31:48.959Z,31.00
2022-08-23T13:34:34.823Z,30.80
2022-08-23T13:37:05.115Z,30.80
2022-08-23T13:39:32.989Z,30.80
2022-08-23T13:42:00.045Z,30.80
2022-08-23T13:44:27.237Z,30.70
2022-08-23T13:46:54.594Z,30.80
2022-08-23T13:49:24.560Z,30.80
2022-08-23T13:52:32.971Z,30.60
2022-08-23T13:54:50.897Z,30.60
2022-08-23T13:57:20.922Z,30.50
2022-08-23T13:59:52.574Z,30.50
2022-08-23T14:02:20.963Z,30.60
2022-08-23T14:04:48.504Z,30.60
2022-08-23T14:07:15.772Z,30.50
2022-08-23T14:09:42.870Z,30.40
2022-08-23T14:12:15.265Z,30.50
2022-08-23T14:14:42.803Z,30.50
2022-08-23T14:17:12.816Z,30.40
2022-08-23T14:22:29.456Z,30.20
2022-08-23T14:24:56.822Z,30.10
2022-08-23T14:27:23.847Z,30.10
2022-08-23T14:29:50.787Z,30.10
2022-08-23T14:32:17.824Z,30.10
2022-08-23T14:34:44.797Z,30.00
2022-08-23T14:39:58.854Z,29.80
2022-08-23T14:42:26.004Z,29.70
2022-08-23T14:44:52.993Z,29.60
2022-08-23T14:47:20.144Z,29.60
2022-08-23T14:49:49.867Z,29.60
2022-08-23T14:52:19.214Z,29.60
2022-08-23T14:54:46.217Z,29.60
2022-08-23T14:57:13.230Z,29.60
2022-08-23T14:59:40.182Z,29.60
2022-08-23T15:02:09.519Z,29.70
2022-08-23T15:04:36.624Z,29.70
2022-08-23T15:07:20.453Z,29.80
2022-08-23T15:09:48.812Z,29.90
2022-08-23T15:15:05.307Z,29.90
2022-08-23T15:17:35.431Z,29.90
2022-08-23T15:20:02.519Z,29.90
2022-08-23T15:22:29.497Z,29.90
2022-08-23T15:24:56.591Z,29.90
2022-08-23T15:27:24.719Z,30.00
2022-08-23T15:29:51.735Z,30.00
2022-08-23T15:32:22.661Z,29.90
2022-08-23T15:34:50.554Z,29.90
2022-08-23T15:37:20.135Z,29.90
2022-08-23T15:39:47.268Z,29.80
2022-08-23T15:42:19.989Z,29.80
2022-08-23T15:44:47.538Z,29.70
2022-08-23T15:47:20.053Z,29.70
2022-08-23T15:49:47.229Z,29.60
2022-08-23T15:52:14.377Z,29.60
2022-08-23T15:54:41.372Z,29.60
2022-08-23T15:57:08.896Z,29.60
2022-08-23T15:59:37.448Z,29.50
2022-08-23T16:02:04.801Z,29.50
2022-08-23T16:04:35.417Z,29.40
2022-08-23T16:07:05.114Z,29.50
2022-08-23T16:09:33.903Z,29.50
2022-08-23T16:12:01.544Z,29.50
2022-08-23T16:14:31.239Z,29.40
2022-08-23T16:16:58.821Z,29.40
2022-08-23T16:19:26.494Z,29.40
2022-08-23T16:21:54.778Z,29.30
2022-08-23T16:24:24.460Z,29.30
2022-08-23T16:26:52.048Z,29.30
2022-08-23T16:29:19.598Z,29.30
2022-08-23T16:31:46.826Z,29.30
2022-08-23T16:34:15.404Z,29.20
2022-08-23T16:36:43.989Z,29.10
2022-08-23T16:39:12.304Z,29.20
2022-08-23T16:41:39.309Z,29.20
2022-08-23T16:44:06.458Z,29.10
2022-08-23T16:46:33.970Z,29.10
2022-08-23T16:49:01.248Z,29.10
2022-08-23T16:51:28.342Z,29.00
2022-08-23T16:54:02.739Z,29.00
2022-08-23T16:56:31.813Z,29.00
2022-08-23T16:58:59.101Z,29.00
2022-08-23T17:01:26.176Z,28.90
2022-08-23T17:03:53.193Z,28.90
2022-08-23T17:06:20.145Z,28.80
2022-08-23T17:08:47.302Z,28.90
2022-08-23T17:11:18.886Z,28.80
2022-08-23T17:13:46.096Z,28.80
2022-08-23T17:16:13.281Z,28.70
2022-08-23T17:18:40.292Z,28.70
2022-08-23T17:21:07.896Z,28.70
2022-08-23T17:23:40.443Z,28.60
2022-08-23T17:26:08.855Z,28.60
2022-08-23T17:28:35.954Z,28.50
2022-08-23T17:31:03.060Z,28.50
2022-08-23T17:33:30.097Z,28.40
2022-08-23T17:35:57.138Z,28.40
2022-08-23T17:38:24.172Z,28.30
2022-08-23T17:40:51.327Z,28.20
2022-08-23T17:43:18.517Z,28.10
2022-08-23T17:45:46.680Z,28.00
2022-08-23T17:48:14.259Z,28.00
2022-08-23T17:50:42.161Z,27.80
2022-08-23T17:53:09.671Z,27.80
2022-08-23T17:55:36.839Z,27.70
2022-08-23T17:58:05.065Z,27.70
2022-08-23T18:00:36.272Z,27.60
2022-08-23T18:03:03.634Z,27.60
2022-08-23T18:05:33.390Z,27.50
2022-08-23T18:08:00.474Z,27.40
2022-08-23T18:10:27.717Z,27.30
2022-08-23T18:12:55.229Z,27.30
2022-08-23T18:15:22.249Z,27.20
2022-08-23T18:17:49.213Z,27.20
2022-08-23T18:20:19.188Z,27.20
2022-08-23T18:22:46.268Z,27.10
2022-08-23T18:25:20.289Z,27.10
2022-08-23T18:28:09.938Z,27.00
2022-08-23T18:30:45.944Z,27.00
2022-08-23T18:33:13.593Z,27.00
2022-08-23T18:35:41.223Z,26.90
2022-08-23T18:38:08.523Z,26.90
2022-08-23T18:40:45.793Z,26.80
2022-08-23T18:43:18.477Z,26.70
2022-08-23T18:45:47.063Z,26.70
2022-08-23T18:48:21.251Z,26.70
2022-08-23T18:50:54.894Z,26.70
2022-08-23T18:53:22.301Z,26.60
2022-08-23T18:55:52.560Z,26.60
2022-08-23T18:58:20.948Z,26.60
2022-08-23T19:00:50.608Z,26.50
2022-08-23T19:03:19.464Z,26.40
2022-08-23T19:05:46.607Z,26.40
2022-08-23T19:08:13.632Z,26.40
2022-08-23T19:10:43.504Z,26.40
2022-08-23T19:13:11.083Z,26.30
2022-08-23T19:15:40.646Z,26.30
2022-08-23T19:18:08.103Z,26.30
2022-08-23T19:20:36.386Z,26.30
2022-08-23T19:23:03.492Z,26.30
2022-08-23T19:25:31.713Z,26.20
2022-08-23T19:27:58.770Z,26.20
2022-08-23T19:30:28.537Z,26.20
2022-08-23T19:33:09.243Z,26.20
2022-08-23T19:35:44.480Z,26.20
2022-08-23T19:38:14.358Z,26.20
2022-08-23T19:40:42.503Z,26.20
2022-08-23T19:43:10.311Z,26.20
2022-08-23T19:45:38.489Z,26.20
2022-08-23T19:48:05.597Z,26.20
2022-08-23T19:50:32.722Z,26.20
2022-08-23T19:52:59.657Z,26.20
2022-08-23T19:55:27.749Z,26.10
2022-08-23T19:57:55.523Z,26.10
2022-08-23T20:00:23.049Z,26.10
2022-08-23T20:02:50.157Z,26.10
2022-08-23T20:05:17.897Z,26.10
2022-08-23T20:07:45.028Z,26.10
2022-08-23T20:10:13.031Z,26.00
2022-08-23T20:12:41.809Z,26.00
2022-08-23T20:15:09.871Z,26.00
2022-08-23T20:17:36.996Z,26.00
2022-08-23T20:20:05.572Z,25.90
2022-08-23T20:22:51.205Z,25.90
2022-08-23T20:25:18.420Z,25.80
2022-08-23T20:27:45.755Z,25.80
2022-08-23T20:30:14.196Z,25.80
2022-08-23T20:32:42.627Z,25.80
2022-08-23T20:35:11.372Z,25.70
2022-08-23T20:37:39.185Z,25.70
2022-08-23T20:40:07.130Z,25.60
2022-08-23T20:42:34.082Z,25.60
2022-08-23T20:45:01.122Z,25.50
2022-08-23T20:47:28.060Z,25.50
2022-08-23T20:49:55.132Z,25.50
2022-08-23T20:52:22.208Z,25.40
2022-08-23T20:54:49.433Z,25.40
2022-08-23T20:57:16.444Z,25.40
2022-08-23T20:59:44.979Z,25.40
2022-08-23T21:02:12.772Z,25.30
2022-08-23T21:04:40.227Z,25.30
2022-08-23T21:07:08.459Z,25.30
2022-08-23T21:09:36.152Z,25.30
2022-08-23T21:12:03.213Z,25.30
2022-08-23T21:14:30.242Z,25.20
2022-08-23T21:16:57.230Z,25.20
2022-08-23T21:19:24.424Z,25.20
2022-08-23T21:21:51.551Z,25.20
2022-08-23T21:24:18.629Z,25.20
2022-08-23T21:26:45.586Z,25.10
2022-08-23T21:29:12.679Z,25.10
2022-08-23T21:31:39.860Z,25.00
2022-08-23T21:34:07.807Z,25.00
2022-08-23T21:36:35.323Z,25.00
2022-08-23T21:39:02.326Z,25.00
2022-08-23T21:41:31.912Z,25.00
2022-08-23T21:43:58.880Z,25.00
2022-08-23T21:46:26.302Z,25.00
2022-08-23T21:48:53.388Z,24.90
2022-08-23T21:51:22.414Z,24.80
2022-08-23T21:53:49.417Z,24.80
2022-08-23T21:56:16.938Z,24.80
2022-08-23T21:58:44.348Z,24.80
2022-08-23T22:01:12.060Z,24.70
2022-08-23T22:03:39.146Z,24.70
2022-08-23T22:06:11.672Z,24.70
2022-08-23T22:08:38.798Z,24.60
2022-08-23T22:11:07.462Z,24.60
2022-08-23T22:13:35.027Z,24.60
2022-08-23T22:16:02.038Z,24.60
2022-08-23T22:18:29.436Z,24.50
2022-08-23T22:20:58.320Z,24.40
2022-08-23T22:23:26.472Z,24.40
2022-08-23T22:25:56.861Z,24.30
2022-08-23T22:28:24.390Z,24.30
2022-08-23T22:30:52.511Z,24.30
2022-08-23T22:33:21.128Z,24.30
2022-08-23T22:35:48.990Z,24.20
2022-08-23T22:40:48.921Z,24.20
2022-08-23T22:43:16.713Z,24.20
2022-08-23T22:45:53.914Z,24.10
2022-08-23T22:48:21.662Z,24.10
2022-08-23T22:50:48.920Z,24.10
2022-08-23T22:53:16.324Z,24.10
2022-08-23T22:55:48.959Z,24.10
2022-08-23T22:58:15.931Z,24.10
2022-08-23T23:00:43.429Z,24.10
2022-08-23T23:03:10.962Z,24.10
2022-08-23T23:05:38.297Z,24.10
2022-08-23T23:08:23.673Z,24.00
2022-08-23T23:10:50.724Z,24.00
2022-08-23T23:13:17.796Z,24.00
2022-08-23T23:15:44.814Z,24.00
2022-08-23T23:20:40.233Z,23.90
2022-08-23T23:23:08.262Z,23.80
2022-08-23T23:25:36.470Z,23.80
2022-08-23T23:28:04.526Z,23.80
2022-08-23T23:30:32.427Z,23.80
2022-08-23T23:32:59.867Z,23.70
2022-08-23T23:35:28.375Z,23.80
2022-08-23T23:37:55.983Z,23.70
2022-08-23T23:40:23.484Z,23.70
2022-08-23T23:42:50.671Z,23.60
2022-08-23T23:45:18.056Z,23.60
2022-08-23T23:47:45.089Z,23.60
2022-08-23T23:52:40.642Z,23.50
2022-08-23T23:55:09.623Z,23.40
2022-08-23T23:57:36.999Z,23.40
